Time;durP1;ratioP1;P1;durP2;ratioP2;P2;SDS_P1;SDS_P2;PMS_P1;PMS_P2;Temp;Humidity;BMP_temperature;BMP_pressure;BME280_temperature;BME280_humidity;BME280_pressure;Samples;Min_cycle;Max_cycle;Signal;HPM_P1;HPM_P2
2021/06/04 00:02:08;;;;;;;3.73;3.30;;;16.30;99.90;;;;;;5031590;28;20452;-69
2021/06/04 00:04:34;;;;;;;3.70;3.40;;;16.30;99.90;;;;;;5031376;28;20484;-69
2021/06/04 00:07:01;;;;;;;3.50;3.20;;;16.20;99.90;;;;;;5031435;28;20484;-69
2021/06/04 00:09:27;;;;;;;4.37;3.20;;;16.20;99.90;;;;;;5031096;28;20464;-69
2021/06/04 00:11:57;;;;;;;3.93;3.00;;;16.20;99.90;;;;;;5031328;28;20464;-69
2021/06/04 00:14:26;;;;;;;4.03;3.63;;;16.20;99.90;;;;;;5031224;28;21043;-69
2021/06/04 00:16:57;;;;;;;6.17;3.00;;;16.10;99.90;;;;;;5031130;28;20488;-69
2021/06/04 00:19:28;;;;;;;5.00;3.07;;;16.10;99.90;;;;;;5030967;28;20518;-69
2021/06/04 00:21:57;;;;;;;3.00;2.70;;;16.00;99.90;;;;;;5031313;28;20518;-69
2021/06/04 00:24:23;;;;;;;3.47;3.17;;;16.00;99.90;;;;;;5031135;28;20464;-69
2021/06/04 00:26:51;;;;;;;3.87;3.30;;;15.90;99.90;;;;;;5030778;28;20484;-69
2021/06/04 00:29:18;;;;;;;3.43;3.13;;;15.90;99.90;;;;;;5030338;28;20471;-69
2021/06/04 00:31:46;;;;;;;3.27;3.00;;;15.90;99.90;;;;;;5030960;28;20487;-69
2021/06/04 00:34:14;;;;;;;2.90;2.70;;;15.90;99.90;;;;;;5030926;28;20517;-69
2021/06/04 00:36:41;;;;;;;3.70;3.40;;;15.80;99.90;;;;;;5030761;28;20483;-69
2021/06/04 00:39:10;;;;;;;3.60;3.30;;;15.80;99.90;;;;;;5030632;28;20460;-69
2021/06/04 00:41:40;;;;;;;3.53;3.23;;;15.70;99.90;;;;;;5031051;28;20468;-69
2021/06/04 00:44:08;;;;;;;4.60;3.80;;;15.70;99.90;;;;;;5030983;28;20460;-69
2021/06/04 00:46:34;;;;;;;3.57;3.27;;;15.80;99.90;;;;;;5030618;28;20480;-69
2021/06/04 00:49:00;;;;;;;3.70;3.40;;;15.70;99.90;;;;;;5030737;28;21263;-69
2021/06/04 00:51:32;;;;;;;4.80;3.20;;;15.70;99.90;;;;;;5030525;28;20464;-69
2021/06/04 00:54:00;;;;;;;3.50;3.20;;;15.70;99.90;;;;;;5030846;28;20493;-69
2021/06/04 00:56:28;;;;;;;3.90;3.60;;;15.60;99.90;;;;;;5030573;28;20484;-69
2021/06/04 00:58:55;;;;;;;3.90;3.40;;;15.60;99.90;;;;;;5030603;28;20467;-69
2021/06/04 01:01:24;;;;;;;3.03;2.83;;;15.60;99.90;;;;;;5030575;28;20998;-69
2021/06/04 01:03:53;;;;;;;3.80;3.50;;;15.60;99.90;;;;;;5030665;28;20464;-69
2021/06/04 01:06:26;;;;;;;3.90;3.60;;;15.60;99.90;;;;;;5030500;28;20488;-69
2021/06/04 01:09:08;;;;;;;4.20;3.80;;;15.60;99.90;;;;;;5030399;28;20522;-69
2021/06/04 01:11:48;;;;;;;3.33;3.03;;;15.50;99.90;;;;;;5030580;28;20464;-68
2021/06/04 01:14:27;;;;;;;3.77;3.47;;;15.50;99.90;;;;;;5030638;28;20490;-68
2021/06/04 01:16:59;;;;;;;3.97;3.50;;;15.50;99.90;;;;;;5030468;28;20487;-69
2021/06/04 01:19:41;;;;;;;5.00;3.47;;;15.50;99.90;;;;;;5030147;28;20464;-69
2021/06/04 01:22:13;;;;;;;3.90;3.50;;;15.50;99.90;;;;;;5030422;28;20464;-67
2021/06/04 01:24:55;;;;;;;5.50;3.73;;;15.50;99.90;;;;;;5030266;28;20542;-67
2021/06/04 01:27:26;;;;;;;3.53;3.23;;;15.50;99.90;;;;;;5030259;28;20492;-67
2021/06/04 01:29:59;;;;;;;6.30;3.40;;;15.40;99.90;;;;;;5030214;28;20463;-67
2021/06/04 01:32:29;;;;;;;4.60;3.50;;;15.40;99.90;;;;;;5030338;28;20464;-67
2021/06/04 01:35:01;;;;;;;3.73;3.43;;;15.30;99.90;;;;;;5030228;28;20456;-67
2021/06/04 01:37:30;;;;;;;4.13;3.83;;;15.30;99.90;;;;;;5030375;28;20468;-67
2021/06/04 01:40:00;;;;;;;4.30;3.97;;;15.30;99.90;;;;;;5032433;28;20975;-67
2021/06/04 01:42:44;;;;;;;3.77;3.47;;;15.30;99.90;;;;;;5034049;28;20464;-67
2021/06/04 01:45:14;;;;;;;4.57;4.10;;;15.30;99.90;;;;;;5034182;28;20483;-67
2021/06/04 01:47:44;;;;;;;3.87;3.57;;;15.30;99.90;;;;;;5033783;28;20491;-67
2021/06/04 01:50:17;;;;;;;5.13;3.77;;;15.30;99.90;;;;;;5034031;28;20521;-67
2021/06/04 01:52:45;;;;;;;4.37;3.97;;;15.30;99.90;;;;;;5033991;28;20457;-67
2021/06/04 01:55:15;;;;;;;4.47;4.07;;;15.30;99.90;;;;;;5033861;28;20507;-67
2021/06/04 01:57:47;;;;;;;3.67;3.37;;;15.20;99.90;;;;;;5033513;28;20460;-67
2021/06/04 02:00:17;;;;;;;4.67;3.83;;;15.20;99.90;;;;;;5033900;28;20468;-67
2021/06/04 02:02:45;;;;;;;4.47;4.07;;;15.20;99.90;;;;;;5033716;28;20839;-67
2021/06/04 02:05:16;;;;;;;4.20;3.90;;;15.20;99.90;;;;;;5033591;28;20488;-67
2021/06/04 02:07:42;;;;;;;4.10;3.70;;;15.20;99.90;;;;;;5033452;28;20468;-67
2021/06/04 02:10:13;;;;;;;4.60;4.20;;;15.20;99.90;;;;;;5033524;28;20452;-67
2021/06/04 02:12:42;;;;;;;4.57;4.17;;;15.20;99.90;;;;;;5033542;28;20522;-67
2021/06/04 02:15:13;;;;;;;4.17;3.83;;;15.10;99.90;;;;;;5033479;28;20463;-67
2021/06/04 02:17:46;;;;;;;4.27;3.87;;;15.10;99.90;;;;;;5033198;28;20498;-67
2021/06/04 02:20:19;;;;;;;6.17;3.90;;;15.10;99.90;;;;;;5033579;28;20468;-67
2021/06/04 02:22:58;;;;;;;4.07;3.67;;;15.10;99.90;;;;;;5033412;28;20474;-67
2021/06/04 02:25:33;;;;;;;4.17;3.87;;;15.10;99.90;;;;;;5033172;28;20586;-67
2021/06/04 02:28:06;;;;;;;5.13;4.63;;;15.10;99.90;;;;;;5033343;28;20487;-67
2021/06/04 02:30:37;;;;;;;4.47;4.07;;;15.10;99.90;;;;;;5033924;28;20456;-67
2021/06/04 02:33:08;;;;;;;4.23;3.90;;;15.10;99.90;;;;;;5033312;28;20472;-67
2021/06/04 02:35:38;;;;;;;4.60;4.20;;;15.10;99.90;;;;;;5033107;28;20909;-67
2021/06/04 02:38:13;;;;;;;5.53;4.03;;;15.00;99.90;;;;;;5032975;28;20467;-67
2021/06/04 02:40:43;;;;;;;3.73;3.43;;;15.00;99.90;;;;;;5032935;28;20547;-67
2021/06/04 02:43:14;;;;;;;4.60;4.20;;;15.00;99.90;;;;;;5033473;28;20464;-67
2021/06/04 02:45:46;;;;;;;4.00;3.70;;;15.00;99.90;;;;;;5032919;28;20488;-67
2021/06/04 02:48:16;;;;;;;4.17;3.77;;;15.00;99.90;;;;;;5032798;28;20467;-67
2021/06/04 02:50:47;;;;;;;4.60;4.20;;;15.00;99.90;;;;;;5031913;28;20464;-67
2021/06/04 02:53:24;;;;;;;4.37;4.07;;;15.00;99.90;;;;;;5032862;28;20456;-67
2021/06/04 02:56:23;;;;;;;4.77;4.37;;;15.00;99.90;;;;;;5032924;28;20479;-67
2021/06/04 02:58:54;;;;;;;4.57;4.17;;;15.00;99.90;;;;;;4971343;28;20963;-67
2021/06/04 03:01:21;;;;;;;4.30;3.90;;;15.00;99.90;;;;;;5020745;28;20468;-67
2021/06/04 03:03:51;;;;;;;4.27;3.97;;;15.00;99.90;;;;;;5032495;28;20460;-67
2021/06/04 03:06:19;;;;;;;4.47;4.07;;;14.90;99.90;;;;;;5032560;28;20964;-67
2021/06/04 03:08:47;;;;;;;4.80;4.40;;;15.00;99.90;;;;;;5032311;28;20472;-67
2021/06/04 03:11:14;;;;;;;4.73;4.27;;;14.90;99.90;;;;;;5032595;28;20464;-67
2021/06/04 03:13:40;;;;;;;4.80;4.37;;;14.90;99.90;;;;;;5032488;28;20466;-67
2021/06/04 03:16:11;;;;;;;4.50;4.10;;;14.90;99.90;;;;;;5032252;28;20484;-67
2021/06/04 03:18:42;;;;;;;5.17;4.17;;;14.90;99.90;;;;;;5032019;28;20464;-67
2021/06/04 03:21:22;;;;;;;4.60;4.20;;;14.90;99.90;;;;;;5032380;28;20519;-67
2021/06/04 03:23:49;;;;;;;4.63;4.13;;;14.90;99.90;;;;;;5032382;28;20464;-67
2021/06/04 03:26:20;;;;;;;4.77;4.37;;;14.90;99.90;;;;;;5032100;28;20492;-67
2021/06/04 03:28:49;;;;;;;4.70;4.30;;;14.90;99.90;;;;;;5032168;28;20482;-67
2021/06/04 03:31:19;;;;;;;4.70;4.30;;;14.90;99.90;;;;;;5032218;28;20472;-67
2021/06/04 03:33:46;;;;;;;4.97;4.47;;;14.90;99.90;;;;;;5031973;28;20511;-67
2021/06/04 03:36:16;;;;;;;5.03;4.60;;;14.90;99.90;;;;;;5032133;28;20476;-67
2021/06/04 03:38:44;;;;;;;5.90;5.00;;;14.90;99.90;;;;;;5031718;28;20470;-67
2021/06/04 03:41:11;;;;;;;5.57;5.00;;;14.90;99.90;;;;;;5032082;28;20464;-67
2021/06/04 03:43:37;;;;;;;6.13;5.63;;;14.90;99.90;;;;;;5031739;28;20501;-67
2021/06/04 03:46:04;;;;;;;5.90;5.40;;;15.00;99.90;;;;;;5031802;28;20495;-70
2021/06/04 03:48:34;;;;;;;7.07;6.37;;;15.00;99.90;;;;;;5031409;28;20475;-67
2021/06/04 03:51:04;;;;;;;5.30;4.70;;;14.90;99.90;;;;;;5031674;28;20464;-67
2021/06/04 03:53:31;;;;;;;6.13;5.43;;;15.00;99.90;;;;;;5031515;28;20457;-67
2021/06/04 03:55:58;;;;;;;5.00;4.30;;;15.00;99.90;;;;;;5031643;28;20483;-70
2021/06/04 03:58:25;;;;;;;5.30;4.90;;;15.00;99.90;;;;;;5044522;28;20468;-70
2021/06/04 04:00:53;;;;;;;5.80;5.30;;;15.10;99.90;;;;;;5051017;28;20513;-70
2021/06/04 04:03:21;;;;;;;5.97;5.47;;;15.10;99.90;;;;;;5048692;28;20459;-69
2021/06/04 04:05:49;;;;;;;5.20;4.80;;;15.20;99.90;;;;;;5052772;28;20491;-70
2021/06/04 04:08:18;;;;;;;4.93;4.43;;;15.20;99.90;;;;;;5050659;28;21189;-69
2021/06/04 04:10:45;;;;;;;4.97;4.47;;;15.30;99.90;;;;;;5051614;28;20463;-69
2021/06/04 04:13:16;;;;;;;4.77;4.37;;;15.30;99.90;;;;;;5051801;28;20467;-69
2021/06/04 04:15:43;;;;;;;5.60;5.10;;;15.40;99.90;;;;;;5050783;28;20491;-69
2021/06/04 04:18:09;;;;;;;5.03;4.57;;;15.40;99.90;;;;;;5050735;28;20973;-67
2021/06/04 04:20:39;;;;;;;5.50;4.50;;;15.50;99.90;;;;;;5050830;28;20486;-67
2021/06/04 04:23:11;;;;;;;5.47;5.07;;;15.60;99.90;;;;;;5051116;28;20535;-67
2021/06/04 04:25:42;;;;;;;5.47;4.77;;;15.60;99.90;;;;;;5050642;28;20490;-67
2021/06/04 04:28:13;;;;;;;4.80;4.40;;;15.70;99.90;;;;;;5050538;28;20459;-67
2021/06/04 04:30:39;;;;;;;5.17;4.77;;;15.70;99.90;;;;;;5050561;28;20509;-67
2021/06/04 04:33:07;;;;;;;4.83;4.43;;;15.70;99.90;;;;;;5050663;28;20463;-67
2021/06/04 04:35:36;;;;;;;6.03;5.50;;;15.80;99.90;;;;;;5050520;28;20475;-67
2021/06/04 04:38:02;;;;;;;6.47;5.87;;;15.80;99.90;;;;;;5050418;28;20459;-67
2021/06/04 04:40:32;;;;;;;6.70;6.10;;;15.90;99.90;;;;;;5050372;28;20459;-67
2021/06/04 04:42:59;;;;;;;7.40;6.73;;;16.00;99.90;;;;;;5050502;28;20489;-67
2021/06/04 04:45:26;;;;;;;5.93;5.50;;;16.00;99.90;;;;;;5050307;28;20491;-67
2021/06/04 04:47:53;;;;;;;5.90;5.50;;;16.10;99.90;;;;;;5037725;28;20457;-67
2021/06/04 04:50:20;;;;;;;5.80;5.30;;;16.10;99.90;;;;;;5030591;28;20468;-67
2021/06/04 04:52:47;;;;;;;5.53;5.13;;;16.20;99.90;;;;;;5030626;28;20548;-67
2021/06/04 04:55:15;;;;;;;6.13;5.70;;;16.30;99.90;;;;;;5029841;28;20476;-67
2021/06/04 04:57:43;;;;;;;6.77;6.07;;;16.40;99.90;;;;;;5030364;28;20840;-67
2021/06/04 05:00:13;;;;;;;6.50;5.90;;;16.40;99.90;;;;;;5036846;28;21034;-67
2021/06/04 05:02:40;;;;;;;6.73;6.20;;;16.50;99.90;;;;;;5044792;28;20493;-67
2021/06/04 05:05:08;;;;;;;6.97;6.33;;;16.60;99.90;;;;;;5050460;28;20862;-67
2021/06/04 05:07:34;;;;;;;6.87;6.17;;;16.70;99.90;;;;;;5042946;28;20459;-67
2021/06/04 05:10:00;;;;;;;6.67;6.07;;;16.80;99.90;;;;;;5040104;28;20832;-67
2021/06/04 05:12:27;;;;;;;6.43;5.83;;;16.80;99.90;;;;;;5039227;28;20471;-67
2021/06/04 05:14:55;;;;;;;6.60;5.90;;;16.90;99.90;;;;;;5036115;28;20553;-67
2021/06/04 05:17:21;;;;;;;6.63;5.90;;;17.00;99.90;;;;;;5044606;28;20471;-67
2021/06/04 05:19:48;;;;;;;6.20;5.70;;;17.10;99.90;;;;;;5050796;28;20463;-67
2021/06/04 05:22:14;;;;;;;5.50;5.10;;;17.10;99.90;;;;;;5054407;28;20466;-67
2021/06/04 05:24:41;;;;;;;5.87;5.37;;;17.20;99.90;;;;;;5088762;22;20867;-73
2021/06/04 05:27:07;;;;;;;6.13;5.53;;;17.30;99.90;;;;;;5070685;28;20452;-74
2021/06/04 05:29:34;;;;;;;6.43;5.90;;;17.30;99.90;;;;;;5062762;28;20451;-73
2021/06/04 05:32:01;;;;;;;6.53;5.90;;;17.40;99.90;;;;;;5059446;28;20528;-73
2021/06/04 05:34:27;;;;;;;5.60;5.00;;;17.50;99.90;;;;;;5056530;28;20475;-73
2021/06/04 05:36:54;;;;;;;6.07;5.57;;;17.60;99.90;;;;;;5059312;28;20460;-73
2021/06/04 05:39:22;;;;;;;4.77;4.37;;;17.70;99.90;;;;;;5053654;28;20455;-72
2021/06/04 05:41:51;;;;;;;5.37;4.60;;;17.80;99.90;;;;;;5061113;28;20450;-73
2021/06/04 05:44:20;;;;;;;5.03;4.53;;;17.90;99.90;;;;;;5070878;28;20482;-72
2021/06/04 05:46:48;;;;;;;5.20;4.70;;;18.00;99.90;;;;;;5073598;28;20714;-70
2021/06/04 05:49:16;;;;;;;5.07;4.57;;;18.10;99.90;;;;;;5073512;28;20469;-71
2021/06/04 05:51:42;;;;;;;4.73;4.33;;;18.30;99.90;;;;;;5073503;28;20466;-71
2021/06/04 05:54:09;;;;;;;5.03;4.53;;;18.40;99.90;;;;;;5073820;28;20482;-72
2021/06/04 05:56:35;;;;;;;6.00;4.57;;;18.50;99.90;;;;;;5073480;28;20466;-72
2021/06/04 05:59:02;;;;;;;5.90;4.50;;;18.60;99.90;;;;;;5073352;28;20477;-71
2021/06/04 06:01:30;;;;;;;4.17;3.87;;;18.80;99.90;;;;;;5073692;28;20835;-72
2021/06/04 06:03:58;;;;;;;4.60;4.20;;;18.90;99.90;;;;;;5073146;28;20532;-70
2021/06/04 06:06:26;;;;;;;4.50;4.10;;;19.10;99.90;;;;;;5073422;28;20486;-70
2021/06/04 06:08:52;;;;;;;4.00;3.60;;;19.30;99.90;;;;;;5072760;28;20466;-71
2021/06/04 06:11:22;;;;;;;3.83;3.50;;;19.40;99.90;;;;;;5073500;28;20839;-71
2021/06/04 06:13:49;;;;;;;4.00;3.60;;;19.60;99.90;;;;;;5072977;28;20486;-70
2021/06/04 06:16:15;;;;;;;3.50;3.07;;;19.70;99.90;;;;;;5073371;28;20504;-71
2021/06/04 06:18:41;;;;;;;4.83;3.60;;;19.80;99.90;;;;;;5072890;28;20462;-70
2021/06/04 06:21:08;;;;;;;3.63;3.27;;;20.00;99.90;;;;;;5073054;28;20458;-71
2021/06/04 06:23:37;;;;;;;3.90;3.40;;;20.10;99.90;;;;;;5072976;28;20466;-70
2021/06/04 06:26:06;;;;;;;4.13;3.03;;;20.10;99.90;;;;;;5072809;28;21086;-70
2021/06/04 06:28:35;;;;;;;3.20;2.87;;;20.20;99.90;;;;;;5072696;28;20847;-71
2021/06/04 06:31:02;;;;;;;3.93;2.70;;;20.30;99.90;;;;;;5073019;28;20466;-70
2021/06/04 06:33:28;;;;;;;3.13;2.47;;;20.30;99.90;;;;;;5072870;28;20829;-70
2021/06/04 06:35:57;;;;;;;2.63;2.43;;;20.30;99.90;;;;;;5072880;28;20889;-70
2021/06/04 06:38:25;;;;;;;3.50;2.83;;;20.30;99.90;;;;;;5072516;28;20474;-70
2021/06/04 06:40:53;;;;;;;2.80;2.43;;;20.30;99.90;;;;;;5072371;28;20841;-70
2021/06/04 06:43:20;;;;;;;2.60;2.20;;;20.30;99.90;;;;;;5072600;28;20465;-70
2021/06/04 06:45:47;;;;;;;2.50;2.30;;;20.30;99.90;;;;;;5072321;28;20866;-70
2021/06/04 06:48:13;;;;;;;2.67;2.47;;;20.30;99.90;;;;;;5072462;28;20469;-70
2021/06/04 06:50:41;;;;;;;2.70;2.50;;;20.30;99.90;;;;;;5072388;28;20584;-70
2021/06/04 06:53:10;;;;;;;2.50;2.30;;;20.30;99.90;;;;;;5066729;28;20462;-71
2021/06/04 06:55:38;;;;;;;2.53;2.33;;;20.30;99.90;;;;;;5057177;28;20478;-71
2021/06/04 06:58:07;;;;;;;3.00;2.60;;;20.30;99.90;;;;;;5052254;28;20945;-71
2021/06/04 07:00:36;;;;;;;3.40;2.10;;;20.20;99.90;;;;;;5056469;28;20508;-70
2021/06/04 07:03:03;;;;;;;3.10;2.80;;;20.20;99.90;;;;;;5072292;28;20478;-71
2021/06/04 07:05:30;;;;;;;3.13;2.73;;;20.30;99.90;;;;;;5067704;28;20482;-71
2021/06/04 07:07:57;;;;;;;3.17;2.83;;;20.20;99.90;;;;;;5071708;28;20490;-71
2021/06/04 07:10:27;;;;;;;3.03;2.60;;;20.20;99.90;;;;;;5072306;28;20958;-71
2021/06/04 07:12:53;;;;;;;2.97;2.30;;;20.30;99.90;;;;;;5071848;28;20463;-72
2021/06/04 07:15:22;;;;;;;2.80;2.60;;;20.20;99.90;;;;;;5072079;28;20486;-71
2021/06/04 07:17:49;;;;;;;3.57;2.60;;;20.20;99.90;;;;;;5071599;28;20514;-71
2021/06/04 07:20:17;;;;;;;3.83;2.63;;;20.20;99.90;;;;;;5071909;28;20802;-71
2021/06/04 07:22:43;;;;;;;2.70;2.50;;;20.20;99.90;;;;;;5071766;28;20467;-71
2021/06/04 07:25:14;;;;;;;3.37;2.23;;;20.30;99.90;;;;;;5060637;28;20486;-70
2021/06/04 07:27:40;;;;;;;3.70;2.67;;;20.30;99.90;;;;;;5071426;28;20838;-70
2021/06/04 07:30:10;;;;;;;3.13;2.67;;;20.40;99.90;;;;;;5071761;28;20459;-70
2021/06/04 07:32:38;;;;;;;3.20;2.60;;;20.50;99.90;;;;;;5068152;28;20962;-72
2021/06/04 07:35:07;;;;;;;2.40;2.20;;;20.70;99.90;;;;;;5051178;28;21072;-71
2021/06/04 07:37:33;;;;;;;4.20;2.33;;;20.80;99.90;;;;;;5050054;28;20467;-71
2021/06/04 07:40:00;;;;;;;3.00;2.30;;;21.00;99.90;;;;;;5067217;28;20493;-71
2021/06/04 07:42:26;;;;;;;4.27;2.47;;;21.10;99.90;;;;;;5062763;28;20958;-71
2021/06/04 07:44:52;;;;;;;3.43;2.17;;;21.20;99.90;;;;;;5059038;28;20479;-72
2021/06/04 07:47:19;;;;;;;2.70;2.50;;;21.30;99.90;;;;;;5051544;28;20484;-71
2021/06/04 07:49:46;;;;;;;2.43;2.23;;;21.40;99.90;;;;;;5051041;28;20491;-71
2021/06/04 07:52:13;;;;;;;2.50;2.30;;;21.50;99.90;;;;;;5051535;28;20503;-71
2021/06/04 07:54:39;;;;;;;3.20;2.37;;;21.60;99.90;;;;;;5051115;28;20531;-71
2021/06/04 07:57:06;;;;;;;3.27;2.03;;;21.70;99.90;;;;;;5051494;28;20533;-71
2021/06/04 07:59:32;;;;;;;3.20;2.37;;;21.80;99.90;;;;;;5053274;28;20839;-71
2021/06/04 08:01:59;;;;;;;2.57;2.37;;;22.00;99.90;;;;;;5069454;28;20459;-71
2021/06/04 08:04:25;;;;;;;6.93;2.17;;;22.10;99.90;;;;;;5070954;28;20478;-72
2021/06/04 08:06:52;;;;;;;2.33;2.13;;;22.30;99.90;;;;;;5070463;28;20490;-71
2021/06/04 08:09:19;;;;;;;2.63;2.43;;;22.40;99.90;;;;;;5070489;28;20551;-72
2021/06/04 08:11:48;;;;;;;2.73;2.00;;;22.50;99.90;;;;;;5070468;28;20471;-71
2021/06/04 08:14:18;;;;;;;4.90;2.70;;;22.70;99.90;;;;;;5070653;28;20482;-71
2021/06/04 08:16:45;;;;;;;3.17;2.30;;;22.70;99.90;;;;;;5068686;28;20458;-71
2021/06/04 08:19:13;;;;;;;2.70;2.30;;;22.90;99.90;;;;;;5069754;28;20963;-72
2021/06/04 08:21:43;;;;;;;3.10;2.40;;;22.90;99.90;;;;;;5070078;28;20485;-71
2021/06/04 08:24:13;;;;;;;5.10;2.97;;;23.00;99.90;;;;;;5070164;28;20494;-71
2021/06/04 08:26:41;;;;;;;2.77;2.50;;;23.00;99.90;;;;;;5069475;28;20486;-70
2021/06/04 08:29:09;;;;;;;3.00;2.30;;;23.10;99.90;;;;;;5069735;28;20451;-71
2021/06/04 08:31:37;;;;;;;2.70;2.50;;;23.10;99.90;;;;;;5070040;28;20458;-72
2021/06/04 08:34:05;;;;;;;3.23;2.60;;;23.20;99.90;;;;;;5070468;28;20548;-70
2021/06/04 08:36:35;;;;;;;4.47;2.97;;;23.30;99.90;;;;;;5069941;28;20965;-70
2021/06/04 08:39:04;;;;;;;3.80;2.50;;;23.30;99.90;;;;;;5069807;28;20473;-71
2021/06/04 08:41:39;;;;;;;3.17;2.33;;;23.40;99.90;;;;;;5070082;28;20859;-71
2021/06/04 08:44:20;;;;;;;3.73;2.70;;;23.40;99.90;;;;;;5070106;28;20477;-72
2021/06/04 08:46:51;;;;;;;3.03;2.70;;;23.50;99.90;;;;;;5070066;28;20514;-71
2021/06/04 08:49:28;;;;;;;3.17;2.87;;;23.50;99.90;;;;;;5068821;28;20463;-71
2021/06/04 08:52:12;;;;;;;6.27;3.17;;;23.60;99.90;;;;;;5069754;28;20458;-71
2021/06/04 08:54:45;;;;;;;2.90;2.70;;;23.80;99.90;;;;;;5069759;28;20482;-72
2021/06/04 08:57:21;;;;;;;3.20;2.90;;;23.90;99.90;;;;;;5069653;28;20478;-72
2021/06/04 08:59:49;;;;;;;6.33;3.20;;;24.00;99.90;;;;;;5069292;28;20519;-72
2021/06/04 09:02:20;;;;;;;3.20;2.60;;;24.10;99.90;;;;;;5069908;28;20475;-72
2021/06/04 09:04:51;;;;;;;3.00;2.57;;;24.20;99.90;;;;;;5069688;28;20535;-71
2021/06/04 09:07:21;;;;;;;3.60;2.60;;;24.20;99.90;;;;;;5069496;28;20478;-70
2021/06/04 09:09:52;;;;;;;3.33;2.60;;;24.20;99.90;;;;;;5069468;28;20553;-71
2021/06/04 09:12:22;;;;;;;4.27;3.17;;;24.20;99.90;;;;;;5069862;28;20496;-70
2021/06/04 09:14:50;;;;;;;3.03;2.73;;;24.40;99.90;;;;;;5069454;28;20482;-70
2021/06/04 09:17:28;;;;;;;5.60;3.10;;;24.50;99.90;;;;;;5070096;28;20459;-70
2021/06/04 09:20:04;;;;;;;5.53;3.30;;;24.70;99.90;;;;;;5069713;28;20466;-70
2021/06/04 09:22:37;;;;;;;3.70;3.37;;;24.80;99.90;;;;;;5070400;28;20562;-70
2021/06/04 09:25:05;;;;;;;5.33;2.90;;;24.90;99.90;;;;;;5069228;28;20496;-71
2021/06/04 09:27:35;;;;;;;3.20;2.90;;;25.10;99.90;;;;;;5069727;28;20764;-71
2021/06/04 09:30:22;;;;;;;5.00;2.97;;;25.20;99.90;;;;;;5068186;28;20462;-71
2021/06/04 09:33:11;;;;;;;3.57;3.10;;;25.30;99.90;;;;;;5067309;28;20461;-71
2021/06/04 09:35:40;;;;;;;4.50;3.20;;;25.30;99.90;;;;;;5067178;28;20462;-70
2021/06/04 09:38:13;;;;;;;4.03;2.90;;;25.10;99.90;;;;;;5066686;28;20461;-70
2021/06/04 09:40:41;;;;;;;7.53;2.90;;;25.00;99.90;;;;;;5067353;28;20880;-71
2021/06/04 09:43:19;;;;;;;4.03;2.97;;;24.90;99.90;;;;;;5068133;28;20461;-70
2021/06/04 09:45:58;;;;;;;3.10;2.50;;;24.80;99.90;;;;;;5068136;28;20502;-70
2021/06/04 09:48:37;;;;;;;3.83;3.27;;;24.80;99.90;;;;;;5067265;28;20465;-70
2021/06/04 09:51:09;;;;;;;3.40;2.83;;;25.00;99.90;;;;;;5067834;28;20954;-70
2021/06/04 09:53:35;;;;;;;4.33;3.30;;;25.20;99.90;;;;;;5068119;28;20488;-72
2021/06/04 09:56:23;;;;;;;4.90;3.43;;;25.40;99.90;;;;;;5067720;28;20466;-72
2021/06/04 09:58:54;;;;;;;4.07;3.17;;;25.70;99.90;;;;;;5056357;28;20482;-69
2021/06/04 10:01:23;;;;;;;3.03;2.83;;;25.90;99.90;;;;;;5067541;28;20470;-70
2021/06/04 10:03:57;;;;;;;5.20;4.30;;;26.00;99.90;;;;;;5071172;28;20471;-70
2021/06/04 10:06:44;;;;;;;3.27;3.00;;;26.00;99.90;;;;;;5071478;28;20485;-69
2021/06/04 10:09:20;;;;;;;3.33;3.03;;;26.00;99.90;;;;;;5071347;28;20465;-70
2021/06/04 10:12:00;;;;;;;6.40;3.60;;;25.90;99.90;;;;;;5071773;28;20884;-70
2021/06/04 10:14:47;;;;;;;3.73;3.40;;;25.80;99.90;;;;;;5073073;28;20482;-70
2021/06/04 10:17:41;;;;;;;6.40;3.80;;;25.80;99.90;;;;;;5073105;28;20458;-70
2021/06/04 10:20:46;;;;;;;5.90;3.57;;;25.70;99.90;;;;;;5072994;28;20831;-70
2021/06/04 10:23:20;;;;;;;3.23;2.93;;;25.50;99.90;;;;;;5072912;28;20831;-70
2021/06/04 10:25:51;;;;;;;3.83;3.50;;;25.20;99.90;;;;;;5072512;28;20997;-70
2021/06/04 10:28:33;;;;;;;5.53;3.40;;;25.10;99.90;;;;;;5072668;28;20473;-70
2021/06/04 10:31:09;;;;;;;5.63;3.80;;;24.90;99.90;;;;;;5072989;28;20512;-70
2021/06/04 10:33:44;;;;;;;5.07;3.83;;;24.80;99.90;;;;;;5072367;28;20450;-70
2021/06/04 10:36:17;;;;;;;4.43;3.80;;;24.70;99.90;;;;;;5071876;28;20462;-70
2021/06/04 10:38:48;;;;;;;4.30;3.80;;;24.60;99.90;;;;;;5072122;28;20807;-70
2021/06/04 10:41:17;;;;;;;3.30;3.00;;;24.50;99.90;;;;;;5072764;28;20458;-70
2021/06/04 10:44:05;;;;;;;4.17;3.20;;;24.50;99.90;;;;;;5072380;28;20458;-70
2021/06/04 10:46:37;;;;;;;3.90;3.30;;;24.40;99.90;;;;;;5072717;28;20780;-70
2021/06/04 10:49:40;;;;;;;6.03;3.50;;;24.50;99.90;;;;;;5072327;28;20553;-70
2021/06/04 10:52:15;;;;;;;4.23;3.47;;;24.50;99.90;;;;;;5072465;28;20466;-69
2021/06/04 10:54:53;;;;;;;3.30;3.07;;;24.40;99.90;;;;;;5072234;28;20477;-70
2021/06/04 10:57:29;;;;;;;3.50;3.20;;;24.40;99.90;;;;;;5072440;28;20462;-70
2021/06/04 11:00:03;;;;;;;5.30;3.13;;;24.50;99.90;;;;;;5072099;28;20462;-70
2021/06/04 11:02:42;;;;;;;3.07;2.57;;;24.50;99.90;;;;;;5072588;28;20469;-70
2021/06/04 11:05:41;;;;;;;4.20;2.60;;;24.60;99.90;;;;;;5072488;28;21057;-70
2021/06/04 11:08:19;;;;;;;4.70;2.87;;;24.70;99.90;;;;;;5044763;28;20665;-70
2021/06/04 11:10:55;;;;;;;6.20;3.47;;;24.90;99.90;;;;;;5072085;28;20458;-70
2021/06/04 11:13:52;;;;;;;6.03;2.80;;;25.10;99.90;;;;;;5071580;28;20569;-70
2021/06/04 11:16:30;;;;;;;4.57;3.00;;;25.10;99.90;;;;;;5059743;28;20463;-70
2021/06/04 11:19:05;;;;;;;4.87;2.43;;;25.20;99.90;;;;;;5071663;28;20454;-70
2021/06/04 11:21:36;;;;;;;3.20;2.90;;;25.20;99.90;;;;;;5072043;28;20487;-70
2021/06/04 11:24:07;;;;;;;2.80;2.60;;;25.20;99.90;;;;;;5063657;28;20495;-70
2021/06/04 11:26:37;;;;;;;5.97;2.47;;;25.10;99.90;;;;;;5051994;28;20487;-70
2021/06/04 11:29:07;;;;;;;3.87;2.57;;;25.10;99.90;;;;;;5051818;28;20893;-70
2021/06/04 11:31:53;;;;;;;3.10;2.67;;;25.10;99.90;;;;;;5051772;28;20495;-70
2021/06/04 11:34:42;;;;;;;3.60;3.00;;;25.00;99.90;;;;;;5051946;28;20479;-70
2021/06/04 11:37:11;;;;;;;4.93;3.30;;;25.00;99.90;;;;;;5051787;28;20455;-70
2021/06/04 11:39:41;;;;;;;2.60;2.40;;;24.90;99.90;;;;;;5051462;28;20539;-70
2021/06/04 11:42:10;;;;;;;2.83;2.63;;;24.90;99.90;;;;;;5051868;28;20475;-70
2021/06/04 11:44:42;;;;;;;5.07;2.73;;;24.90;99.90;;;;;;5051528;28;20486;-70
2021/06/04 11:47:25;;;;;;;4.00;3.20;;;24.90;99.90;;;;;;5051563;28;20526;-70
2021/06/04 11:50:28;;;;;;;3.60;2.87;;;25.00;99.90;;;;;;5051079;28;20468;-70
2021/06/04 11:53:13;;;;;;;3.37;3.00;;;25.00;99.90;;;;;;5051384;28;20455;-70
2021/06/04 11:55:39;;;;;;;4.83;3.17;;;25.10;99.90;;;;;;5048775;28;20479;-70
2021/06/04 11:58:18;;;;;;;3.90;3.50;;;25.20;99.90;;;;;;5051392;28;20463;-70
2021/06/04 12:00:46;;;;;;;5.60;3.57;;;25.30;99.90;;;;;;5051463;28;20460;-70
2021/06/04 12:03:26;;;;;;;3.90;3.20;;;25.30;99.90;;;;;;5051827;28;20550;-71
2021/06/04 12:05:56;;;;;;;4.80;3.50;;;25.20;99.90;;;;;;5051145;28;20487;-70
2021/06/04 12:08:43;;;;;;;4.40;3.60;;;25.10;99.90;;;;;;5051120;28;20471;-69
2021/06/04 12:11:34;;;;;;;4.70;3.77;;;25.20;99.90;;;;;;5051607;28;20493;-69
2021/06/04 12:14:19;;;;;;;5.97;4.30;;;25.20;99.90;;;;;;5051765;28;20540;-70
2021/06/04 12:16:47;;;;;;;6.83;3.80;;;25.20;99.90;;;;;;5051496;28;20464;-69
2021/06/04 12:19:37;;;;;;;7.57;4.17;;;25.10;99.90;;;;;;5051029;28;20853;-70
2021/06/04 12:22:27;;;;;;;5.00;3.97;;;25.10;99.90;;;;;;5051412;28;20464;-70
2021/06/04 12:24:57;;;;;;;3.93;3.53;;;24.90;99.90;;;;;;5050451;28;20479;-70
2021/06/04 12:27:56;;;;;;;3.90;3.40;;;24.70;99.90;;;;;;5051288;28;20490;-69
2021/06/04 12:30:48;;;;;;;4.50;4.00;;;24.60;99.90;;;;;;5050976;28;20470;-70
2021/06/04 12:33:40;;;;;;;4.53;3.70;;;24.40;99.90;;;;;;5051063;28;20972;-70
2021/06/04 12:36:55;;;;;;;3.93;3.53;;;24.60;99.90;;;;;;5051075;28;20452;-70
2021/06/04 12:39:49;;;;;;;4.40;3.03;;;24.80;99.90;;;;;;5050655;28;20513;-70
2021/06/04 12:42:27;;;;;;;3.60;3.30;;;24.90;99.90;;;;;;5050854;28;20550;-69
2021/06/04 12:44:58;;;;;;;4.00;3.47;;;24.80;99.90;;;;;;5050559;28;20548;-69
2021/06/04 12:47:31;;;;;;;3.20;2.90;;;24.80;99.90;;;;;;5050811;28;20487;-69
2021/06/04 12:50:12;;;;;;;3.30;2.90;;;24.70;99.90;;;;;;5050304;28;20464;-71
2021/06/04 12:52:39;;;;;;;3.13;2.83;;;24.60;99.90;;;;;;5063141;28;20462;-69
2021/06/04 12:55:14;;;;;;;4.60;2.90;;;24.60;99.90;;;;;;5070354;28;21020;-70
2021/06/04 12:57:42;;;;;;;2.70;2.50;;;24.60;99.90;;;;;;5050287;28;20474;-70
2021/06/04 13:00:23;;;;;;;2.97;2.60;;;24.60;99.90;;;;;;5051302;28;20455;-69
2021/06/04 13:02:54;;;;;;;5.53;2.83;;;24.90;99.90;;;;;;5070299;28;20458;-72
2021/06/04 13:05:23;;;;;;;3.20;2.80;;;25.00;99.90;;;;;;5070173;28;20478;-71
2021/06/04 13:07:50;;;;;;;3.00;2.70;;;25.10;99.90;;;;;;5069497;28;21002;-71
2021/06/04 13:10:23;;;;;;;5.57;2.97;;;25.10;99.90;;;;;;5070141;28;20469;-71
2021/06/04 13:12:55;;;;;;;5.37;3.23;;;25.20;99.90;;;;;;5070240;28;20470;-69